Time;durP1;ratioP1;P1;durP2;ratioP2;P2;SDS_P1;SDS_P2;PMS_P1;PMS_P2;Temp;Humidity;BMP_temperature;BMP_pressure;BME280_temperature;BME280_humidity;BME280_pressure;Samples;Min_cycle;Max_cycle;Signal;HPM_P1;HPM_P2
2023/03/11 00:00:17;;;;;;;16.60;5.90;;;;;;;-145.18;100.00;60484.78;5031057;28;20067;-67
2023/03/11 00:02:44;;;;;;;16.73;5.73;;;;;;;-145.18;100.00;60484.78;5043318;28;20029;-67
2023/03/11 00:05:15;;;;;;;16.30;4.87;;;;;;;-145.18;100.00;60484.78;5040921;28;20124;-67
2023/03/11 00:07:40;;;;;;;16.52;6.05;;;;;;;-145.18;100.00;60484.78;5037337;28;20105;-68
2023/03/11 00:10:07;;;;;;;11.63;5.13;;;;;;;-145.18;100.00;60484.78;5038426;28;20097;-70
2023/03/11 00:12:33;;;;;;;10.50;4.67;;;;;;;-145.18;100.00;60484.78;5044777;28;20541;-69
2023/03/11 00:14:58;;;;;;;17.67;5.73;;;;;;;-145.18;100.00;60484.78;5039266;28;20039;-70
2023/03/11 00:17:23;;;;;;;14.97;5.27;;;;;;;-145.18;100.00;60484.78;5034273;28;20037;-68
2023/03/11 00:19:49;;;;;;;12.00;5.13;;;;;;;-145.18;100.00;60484.78;5045283;28;20060;-69
2023/03/11 00:22:14;;;;;;;17.30;5.30;;;;;;;-145.18;100.00;60484.78;5044346;28;20037;-68
2023/03/11 00:24:39;;;;;;;15.43;5.10;;;;;;;-145.18;100.00;60484.78;5040453;28;20033;-71
2023/03/11 00:27:05;;;;;;;14.17;4.40;;;;;;;-145.18;100.00;60484.78;5043916;28;20041;-67
2023/03/11 00:29:31;;;;;;;13.33;5.30;;;;;;;-145.18;100.00;60484.78;5035842;28;20037;-71
2023/03/11 00:31:56;;;;;;;12.77;3.97;;;;;;;-145.18;100.00;60484.78;5041803;28;20053;-67
2023/03/11 00:34:22;;;;;;;12.17;4.00;;;;;;;-145.18;100.00;60484.78;5044170;28;20045;-64
2023/03/11 00:36:47;;;;;;;18.77;4.93;;;;;;;-145.18;100.00;60484.78;5045128;28;20499;-68
2023/03/11 00:39:12;;;;;;;16.33;4.07;;;;;;;-145.18;100.00;60484.78;5040342;28;20022;-71
2023/03/11 00:41:38;;;;;;;11.40;4.37;;;;;;;-145.18;100.00;60484.78;5033464;28;20168;-66
2023/03/11 00:44:03;;;;;;;18.97;5.00;;;;;;;-145.18;100.00;60484.78;5039629;28;20029;-68
2023/03/11 00:46:30;;;;;;;13.07;4.30;;;;;;;-145.18;100.00;60484.78;5041567;28;20027;-66
2023/03/11 00:48:55;;;;;;;11.47;4.50;;;;;;;-145.18;100.00;60484.78;5045617;28;20046;-68
2023/03/11 00:51:21;;;;;;;15.23;4.23;;;;;;;-145.18;100.00;60484.78;5045790;28;20033;-68
2023/03/11 00:53:46;;;;;;;14.00;4.87;;;;;;;-145.18;100.00;60484.78;5039393;28;20423;-69
2023/03/11 00:56:13;;;;;;;19.23;4.70;;;;;;;-145.18;100.00;60484.78;5043427;28;20053;-69
2023/03/11 00:58:41;;;;;;;17.77;4.40;;;;;;;-145.18;100.00;60484.78;5042957;28;20043;-69
2023/03/11 01:01:15;;;;;;;14.93;4.37;;;;;;;-145.18;100.00;60484.78;5039068;28;20624;-69
2023/03/11 01:03:41;;;;;;;15.40;3.83;;;;;;;-145.18;100.00;60484.78;5047980;28;21240;-68
2023/03/11 01:06:07;;;;;;;10.77;3.67;;;;;;;-145.18;100.00;60484.78;5046296;28;20029;-69
2023/03/11 01:08:32;;;;;;;15.87;3.83;;;;;;;-145.18;100.00;60484.78;5041290;28;20523;-69
2023/03/11 01:10:58;;;;;;;17.53;4.00;;;;;;;-145.18;100.00;60484.78;5045141;28;20350;-70
2023/03/11 01:13:26;;;;;;;10.43;4.30;;;;;;;-145.18;100.00;60484.78;5047193;28;20235;-69
2023/03/11 01:15:52;;;;;;;12.10;3.70;;;;;;;-145.18;100.00;60484.78;5049919;28;20400;-69
2023/03/11 01:18:19;;;;;;;13.10;3.80;;;;;;;-145.18;100.00;60484.78;5045706;28;20315;-69
2023/03/11 01:20:45;;;;;;;13.67;3.57;;;;;;;-145.18;100.00;60484.78;5046088;28;20021;-68
2023/03/11 01:23:12;;;;;;;16.00;3.80;;;;;;;-145.18;100.00;60484.78;5051393;28;20025;-69
2023/03/11 01:25:37;;;;;;;9.20;3.07;;;;;;;-145.18;100.00;60484.78;5050264;28;20035;-69
2023/03/11 01:28:04;;;;;;;10.63;3.23;;;;;;;-145.18;100.00;60484.78;5039940;28;20392;-71
2023/03/11 01:30:29;;;;;;;17.47;3.87;;;;;;;-145.18;100.00;60484.78;5045647;28;20033;-69
2023/03/11 01:32:56;;;;;;;10.73;3.60;;;;;;;-145.18;100.00;60484.78;5050865;28;20024;-68
2023/03/11 01:35:24;;;;;;;10.93;3.20;;;;;;;-145.18;100.00;60484.78;5049370;28;20083;-68
2023/03/11 01:37:49;;;;;;;12.73;3.50;;;;;;;-145.18;100.00;60484.78;5049935;28;20033;-68
2023/03/11 01:40:32;;;;;;;10.20;3.77;;;;;;;-145.18;100.00;60484.78;5051693;28;20461;-69
2023/03/11 01:42:59;;;;;;;13.93;3.13;;;;;;;-145.18;100.00;60484.78;5047180;28;20372;-68
2023/03/11 01:46:01;;;;;;;12.13;3.33;;;;;;;-145.18;100.00;60484.78;5048027;28;20028;-69
2023/03/11 01:48:27;;;;;;;10.32;2.78;;;;;;;-145.18;100.00;60484.78;5026476;28;20048;-69
2023/03/11 01:50:53;;;;;;;13.30;3.40;;;;;;;-145.18;100.00;60484.78;5047605;28;20044;-69
2023/03/11 01:53:19;;;;;;;11.27;3.17;;;;;;;-145.18;100.00;60484.78;5039849;28;20036;-70
2023/03/11 01:55:45;;;;;;;10.60;3.50;;;;;;;-145.18;100.00;60484.78;5045039;28;20029;-69
2023/03/11 01:58:16;;;;;;;13.63;3.50;;;;;;;-145.18;100.00;60484.78;5050900;28;20090;-68
2023/03/11 02:00:42;;;;;;;14.40;3.33;;;;;;;-145.18;100.00;60484.78;5041202;28;20419;-71
2023/03/11 02:03:13;;;;;;;11.47;3.70;;;;;;;-145.18;100.00;60484.78;5040722;28;20040;-72
2023/03/11 02:05:39;;;;;;;11.40;3.93;;;;;;;-145.18;100.00;60484.78;5040359;28;20377;-71
2023/03/11 02:08:06;;;;;;;17.07;4.30;;;;;;;-145.18;100.00;60484.78;5049515;28;20539;-72
2023/03/11 02:10:31;;;;;;;13.63;4.27;;;;;;;-145.18;100.00;60484.78;5050516;28;20052;-71
2023/03/11 02:12:57;;;;;;;10.73;3.60;;;;;;;-145.18;100.00;60484.78;5049029;28;20055;-71
2023/03/11 02:15:23;;;;;;;10.37;3.50;;;;;;;-145.18;100.00;60484.78;5050104;28;20021;-71
2023/03/11 02:17:48;;;;;;;9.63;3.77;;;;;;;-145.18;100.00;60484.78;5050237;28;20029;-71
2023/03/11 02:20:20;;;;;;;11.23;3.20;;;;;;;-145.18;100.00;60484.78;5047065;28;20137;-72
2023/03/11 02:22:46;;;;;;;11.32;3.15;;;;;;;-145.18;100.00;60484.78;5047068;28;20033;-71
2023/03/11 02:25:29;;;;;;;7.10;3.20;;;;;;;-145.18;100.00;60484.78;5047108;28;20029;-71
2023/03/11 02:27:58;;;;;;;16.97;3.70;;;;;;;-145.18;100.00;60484.78;5044957;28;20083;-72
2023/03/11 02:30:26;;;;;;;12.67;3.80;;;;;;;-145.18;100.00;60484.78;5043463;28;20424;-72
2023/03/11 02:32:52;;;;;;;8.77;3.87;;;;;;;-145.18;100.00;60484.78;5045508;28;20017;-72
2023/03/11 02:35:18;;;;;;;8.63;3.10;;;;;;;-145.18;100.00;60484.78;5045553;28;20020;-72
2023/03/11 02:37:48;;;;;;;17.27;2.83;;;;;;;-145.18;100.00;60484.78;5050338;28;20043;-71
2023/03/11 02:40:23;;;;;;;10.20;3.10;;;;;;;-145.18;100.00;60484.78;5050307;28;20036;-72
2023/03/11 02:43:09;;;;;;;12.23;3.10;;;;;;;-145.18;100.00;60484.78;5042992;28;20056;-71
2023/03/11 02:45:38;;;;;;;13.83;3.40;;;;;;;-145.18;100.00;60484.78;5045493;28;20477;-72
2023/03/11 02:48:05;;;;;;;13.30;3.03;;;;;;;-145.18;100.00;60484.78;5048011;28;20522;-71
2023/03/11 02:50:33;;;;;;;14.27;3.40;;;;;;;-145.18;100.00;60484.78;5049643;28;20396;-72
2023/03/11 02:52:58;;;;;;;14.70;3.13;;;;;;;-145.18;100.00;60484.78;5048569;28;20428;-72
2023/03/11 02:55:24;;;;;;;15.80;3.73;;;;;;;-145.18;100.00;60484.78;5050497;28;20063;-70
2023/03/11 02:57:49;;;;;;;9.70;2.97;;;;;;;-145.18;100.00;60484.78;5047426;28;20017;-70
2023/03/11 03:00:16;;;;;;;13.20;3.40;;;;;;;-145.18;100.00;60484.78;5046952;28;20024;-70
2023/03/11 03:02:43;;;;;;;16.57;2.77;;;;;;;-145.18;100.00;60484.78;5049062;28;20060;-70
2023/03/11 03:05:09;;;;;;;9.03;2.77;;;;;;;-145.18;100.00;60484.78;5050703;28;20049;-70
2023/03/11 03:07:35;;;;;;;11.70;2.90;;;;;;;-145.18;100.00;60484.78;5048187;28;20044;-70
2023/03/11 03:10:02;;;;;;;14.83;2.73;;;;;;;-145.18;100.00;60484.78;5043412;28;20033;-70
2023/03/11 03:12:28;;;;;;;12.90;2.53;;;;;;;-145.18;100.00;60484.78;5044449;28;20025;-70
2023/03/11 03:14:53;;;;;;;13.97;2.70;;;;;;;-145.18;100.00;60484.78;5050304;28;20074;-70
2023/03/11 03:17:18;;;;;;;15.90;2.90;;;;;;;-145.18;100.00;60484.78;5048546;28;20493;-71
2023/03/11 03:19:44;;;;;;;10.20;2.80;;;;;;;-145.18;100.00;60484.78;5049326;28;20075;-70
2023/03/11 03:22:09;;;;;;;11.03;3.10;;;;;;;-145.18;100.00;60484.78;5050796;28;20029;-70
2023/03/11 03:24:35;;;;;;;10.10;2.90;;;;;;;-145.18;100.00;60484.78;5029039;28;20086;-70
2023/03/11 03:27:00;;;;;;;11.43;2.87;;;;;;;-145.18;100.00;60484.78;5046660;28;20151;-70
2023/03/11 03:29:25;;;;;;;9.27;2.37;;;;;;;-145.18;100.00;60484.78;5050383;28;20037;-70
2023/03/11 03:31:51;;;;;;;7.40;2.67;;;;;;;-145.18;100.00;60484.78;5049800;28;20029;-70
2023/03/11 03:34:16;;;;;;;8.90;2.50;;;;;;;-145.18;100.00;60484.78;5049795;28;20026;-70
2023/03/11 03:36:41;;;;;;;10.57;2.77;;;;;;;-145.18;100.00;60484.78;5049629;28;20033;-70
2023/03/11 03:39:07;;;;;;;10.03;2.80;;;;;;;-145.18;100.00;60484.78;5050621;28;20380;-70
2023/03/11 03:41:32;;;;;;;10.83;3.10;;;;;;;-145.18;100.00;60484.78;5049251;28;20032;-70
2023/03/11 03:43:58;;;;;;;12.53;2.73;;;;;;;-145.18;100.00;60484.78;5048694;28;20032;-70
2023/03/11 03:46:24;;;;;;;13.87;3.17;;;;;;;-145.18;100.00;60484.78;5049569;28;20025;-70
2023/03/11 03:48:49;;;;;;;15.07;2.87;;;;;;;-145.18;100.00;60484.78;5047062;28;20388;-70
2023/03/11 03:51:15;;;;;;;9.07;2.73;;;;;;;-145.18;100.00;60484.78;5048484;28;20033;-70
2023/03/11 03:53:41;;;;;;;10.03;2.63;;;;;;;-145.18;100.00;60484.78;5045397;28;20071;-70
2023/03/11 03:56:09;;;;;;;16.87;3.27;;;;;;;-145.18;100.00;60484.78;5046074;28;20049;-70
2023/03/11 03:58:35;;;;;;;13.63;3.30;;;;;;;-145.18;100.00;60484.78;5047275;28;20067;-70
2023/03/11 04:01:01;;;;;;;10.53;2.83;;;;;;;-145.18;100.00;60484.78;5046546;28;20128;-70
2023/03/11 04:03:26;;;;;;;14.87;2.97;;;;;;;-145.18;100.00;60484.78;5048701;28;20039;-70
2023/03/11 04:05:52;;;;;;;7.73;2.80;;;;;;;-145.18;100.00;60484.78;5048419;28;20123;-70
2023/03/11 04:08:18;;;;;;;10.23;3.10;;;;;;;-145.18;100.00;60484.78;5050239;28;20029;-70
2023/03/11 04:10:44;;;;;;;13.47;3.67;;;;;;;-145.18;100.00;60484.78;5043974;28;20033;-70
2023/03/11 04:13:10;;;;;;;11.33;3.30;;;;;;;-145.18;100.00;60484.78;5050027;28;20096;-70
2023/03/11 04:15:38;;;;;;;14.67;3.03;;;;;;;-145.18;100.00;60484.78;5048821;28;20039;-70
2023/03/11 04:18:04;;;;;;;9.73;3.00;;;;;;;-145.18;100.00;60484.78;5049051;28;20032;-70
2023/03/11 04:20:30;;;;;;;14.07;3.30;;;;;;;-145.18;100.00;60484.78;5049287;28;20032;-70
2023/03/11 04:22:55;;;;;;;10.00;2.80;;;;;;;-145.18;100.00;60484.78;5046011;28;20029;-71
2023/03/11 04:25:21;;;;;;;9.13;2.97;;;;;;;-145.18;100.00;60484.78;5052115;28;20506;-70
2023/03/11 04:27:48;;;;;;;12.77;3.13;;;;;;;-145.18;100.00;60484.78;5049197;28;20052;-70
2023/03/11 04:30:14;;;;;;;8.97;3.43;;;;;;;-145.18;100.00;60484.78;5053792;28;20053;-70
2023/03/11 04:32:40;;;;;;;12.10;3.07;;;;;;;-145.18;100.00;60484.78;5052775;28;20049;-70
2023/03/11 04:35:06;;;;;;;13.87;4.00;;;;;;;-145.18;100.00;60484.78;5047684;28;20021;-70
2023/03/11 04:37:32;;;;;;;10.37;3.10;;;;;;;-145.18;100.00;60484.78;5050510;28;20025;-70
2023/03/11 04:39:57;;;;;;;11.67;3.00;;;;;;;-145.18;100.00;60484.78;5050958;28;20040;-70
2023/03/11 04:42:22;;;;;;;13.10;3.47;;;;;;;-145.18;100.00;60484.78;5051196;28;20025;-70
2023/03/11 04:44:48;;;;;;;7.17;2.93;;;;;;;-145.18;100.00;60484.78;5052444;28;20426;-70
2023/03/11 04:47:13;;;;;;;10.17;3.00;;;;;;;-145.18;100.00;60484.78;5052634;28;20032;-70
2023/03/11 04:49:39;;;;;;;12.43;3.30;;;;;;;-145.18;100.00;60484.78;5053250;28;20059;-70
2023/03/11 04:52:04;;;;;;;11.93;2.87;;;;;;;-145.18;100.00;60484.78;5045402;28;20469;-70
2023/03/11 04:54:30;;;;;;;13.43;3.00;;;;;;;-145.18;100.00;60484.78;5052361;28;20036;-70
2023/03/11 04:56:55;;;;;;;14.73;4.47;;;;;;;-145.18;100.00;60484.78;5051590;28;20384;-70
2023/03/11 04:59:20;;;;;;;12.20;3.10;;;;;;;-145.18;100.00;60484.78;5051881;28;20056;-69
2023/03/11 05:01:46;;;;;;;11.10;3.00;;;;;;;-145.18;100.00;60484.78;5041867;28;20017;-70
2023/03/11 05:04:11;;;;;;;12.83;3.40;;;;;;;-145.18;100.00;60484.78;5049587;28;20495;-70
2023/03/11 05:06:37;;;;;;;9.67;2.67;;;;;;;-145.18;100.00;60484.78;5050374;28;20495;-70
2023/03/11 05:09:03;;;;;;;6.50;2.50;;;;;;;-145.18;100.00;60484.78;5050396;28;20449;-70
2023/03/11 05:11:29;;;;;;;11.30;2.60;;;;;;;-145.18;100.00;60484.78;5052051;28;20025;-70
2023/03/11 05:13:54;;;;;;;10.20;2.90;;;;;;;-145.18;100.00;60484.78;5051592;28;20078;-70
2023/03/11 05:16:20;;;;;;;6.03;2.70;;;;;;;-145.18;100.00;60484.78;5053092;28;20024;-70
2023/03/11 05:18:45;;;;;;;13.50;2.70;;;;;;;-145.18;100.00;60484.78;5044319;28;20434;-70
2023/03/11 05:21:10;;;;;;;13.80;2.83;;;;;;;-145.18;100.00;60484.78;5052740;28;20025;-70
2023/03/11 05:23:36;;;;;;;9.43;2.53;;;;;;;-145.18;100.00;60484.78;5052352;28;20032;-70
2023/03/11 05:26:01;;;;;;;12.37;3.00;;;;;;;-145.18;100.00;60484.78;5044838;28;20021;-70
2023/03/11 05:28:26;;;;;;;10.10;2.70;;;;;;;-145.18;100.00;60484.78;5051481;28;20032;-70
2023/03/11 05:30:52;;;;;;;8.10;2.80;;;;;;;-145.18;100.00;60484.78;5052210;28;20431;-70
2023/03/11 05:33:17;;;;;;;10.50;2.87;;;;;;;-145.18;100.00;60484.78;5050361;28;20016;-70
2023/03/11 05:35:43;;;;;;;9.77;2.80;;;;;;;-145.18;100.00;60484.78;5050265;28;20370;-70
2023/03/11 05:38:08;;;;;;;10.57;2.60;;;;;;;-145.18;100.00;60484.78;5032825;28;20032;-70
2023/03/11 05:40:34;;;;;;;13.37;2.77;;;;;;;-145.18;100.00;60484.78;5051991;28;20031;-70
2023/03/11 05:42:59;;;;;;;7.53;2.53;;;;;;;-145.18;100.00;60484.78;5050560;28;20025;-70
2023/03/11 05:45:24;;;;;;;9.17;2.73;;;;;;;-145.18;100.00;60484.78;5052615;28;20541;-70
2023/03/11 05:47:53;;;;;;;7.47;2.43;;;;;;;-145.18;100.00;60484.78;5051014;28;20033;-70
2023/03/11 05:50:18;;;;;;;11.17;2.57;;;;;;;-145.18;100.00;60484.78;5051891;28;20029;-70
2023/03/11 05:52:44;;;;;;;9.50;2.90;;;;;;;-145.18;100.00;60484.78;5051483;28;20029;-70
2023/03/11 05:55:11;;;;;;;9.97;2.47;;;;;;;-145.18;100.00;60484.78;5051969;28;20385;-70
2023/03/11 05:57:37;;;;;;;9.17;2.30;;;;;;;-145.18;100.00;60484.78;5047336;28;20487;-70
2023/03/11 06:00:09;;;;;;;12.43;2.57;;;;;;;-145.18;100.00;60484.78;5051023;28;20635;-70
2023/03/11 06:02:34;;;;;;;11.50;2.40;;;;;;;-145.18;100.00;60484.78;5051814;28;20291;-70
2023/03/11 06:04:59;;;;;;;8.30;2.50;;;;;;;-145.18;100.00;60484.78;5052350;28;20298;-70
2023/03/11 06:07:25;;;;;;;8.77;2.83;;;;;;;-145.18;100.00;60484.78;5052235;28;20028;-70
2023/03/11 06:09:50;;;;;;;7.87;2.60;;;;;;;-145.18;100.00;60484.78;5052104;28;20443;-72
2023/03/11 06:12:16;;;;;;;9.00;2.60;;;;;;;-145.18;100.00;60484.78;5049955;28;20025;-70
2023/03/11 06:14:41;;;;;;;10.57;2.50;;;;;;;-145.18;100.00;60484.78;5049003;28;20044;-70
2023/03/11 06:17:06;;;;;;;10.83;2.90;;;;;;;-145.18;100.00;60484.78;5051883;28;20072;-70
2023/03/11 06:19:32;;;;;;;10.23;2.87;;;;;;;-145.18;100.00;60484.78;5052060;28;20028;-70
2023/03/11 06:21:57;;;;;;;6.63;2.60;;;;;;;-145.18;100.00;60484.78;5068067;28;20057;-71
2023/03/11 06:24:23;;;;;;;10.23;2.70;;;;;;;-145.18;100.00;60484.78;5075872;28;20017;-71
2023/03/11 06:26:52;;;;;;;9.17;2.50;;;;;;;-145.18;100.00;60484.78;5075962;28;20073;-71
2023/03/11 06:29:17;;;;;;;9.53;2.57;;;;;;;-145.18;100.00;60484.78;5076090;28;20012;-70
2023/03/11 06:31:43;;;;;;;12.33;3.63;;;;;;;-145.18;100.00;60484.78;5076808;28;20270;-70
2023/03/11 06:34:10;;;;;;;12.27;3.20;;;;;;;-145.18;100.00;60484.78;5074790;28;20005;-70
2023/03/11 06:36:35;;;;;;;5.80;2.50;;;;;;;-145.18;100.00;60484.78;5074458;28;20041;-70
2023/03/11 06:39:01;;;;;;;11.17;2.70;;;;;;;-145.18;100.00;60484.78;5070343;28;20017;-70
2023/03/11 06:41:26;;;;;;;7.80;2.10;;;;;;;-145.18;100.00;60484.78;5074048;28;20047;-70
2023/03/11 06:43:52;;;;;;;7.53;1.90;;;;;;;-145.18;100.00;60484.78;5071086;28;20015;-70
2023/03/11 06:46:20;;;;;;;6.10;1.50;;;;;;;-145.18;100.00;60484.78;5075698;28;20051;-70
2023/03/11 06:48:46;;;;;;;5.97;1.53;;;;;;;-145.18;100.00;60484.78;5075342;28;20013;-71
2023/03/11 06:51:12;;;;;;;7.10;1.47;;;;;;;-145.18;100.00;60484.78;5073613;28;20025;-70
2023/03/11 06:53:38;;;;;;;6.93;1.60;;;;;;;-145.18;100.00;60484.78;5075943;28;20035;-70
2023/03/11 06:56:06;;;;;;;7.03;1.40;;;;;;;-145.18;100.00;60484.78;5070932;28;20009;-70
2023/03/11 06:58:33;;;;;;;6.70;1.20;;;;;;;-145.18;100.00;60484.78;5075145;28;20098;-71
2023/03/11 07:01:01;;;;;;;5.37;1.50;;;;;;;-145.18;100.00;60484.78;5073302;28;20021;-72
2023/03/11 07:03:26;;;;;;;4.50;1.10;;;;;;;-145.18;100.00;60484.78;5076033;28;20124;-71
2023/03/11 07:05:52;;;;;;;5.67;1.20;;;;;;;-145.18;100.00;60484.78;5075722;28;20029;-72
2023/03/11 07:08:17;;;;;;;4.80;1.20;;;;;;;-145.18;100.00;60484.78;5072794;28;20013;-71
2023/03/11 07:10:42;;;;;;;8.30;1.40;;;;;;;-145.18;100.00;60484.78;5074786;28;20029;-71
2023/03/11 07:13:08;;;;;;;8.00;1.40;;;;;;;-145.18;100.00;60484.78;5067810;28;20032;-71
2023/03/11 07:15:34;;;;;;;6.87;1.50;;;;;;;-145.18;100.00;60484.78;5072255;28;20061;-71
2023/03/11 07:17:59;;;;;;;5.30;1.53;;;;;;;-145.18;100.00;60484.78;5070574;28;20009;-71
2023/03/11 07:20:25;;;;;;;7.90;1.43;;;;;;;-145.18;100.00;60484.78;5076142;28;20080;-70
2023/03/11 07:22:50;;;;;;;6.83;1.70;;;;;;;-145.18;100.00;60484.78;5073706;28;20116;-71
2023/03/11 07:25:16;;;;;;;6.90;1.80;;;;;;;-145.18;100.00;60484.78;5074163;28;20025;-70
2023/03/11 07:27:41;;;;;;;5.47;1.90;;;;;;;-145.18;100.00;60484.78;5074317;28;20024;-71
2023/03/11 07:30:07;;;;;;;5.77;1.67;;;;;;;-145.18;100.00;60484.78;5074517;28;20040;-70
2023/03/11 07:32:33;;;;;;;5.00;1.43;;;;;;;-145.18;100.00;60484.78;5070941;28;20010;-70
2023/03/11 07:34:58;;;;;;;6.30;1.87;;;;;;;-145.18;100.00;60484.78;5075408;28;20006;-71
2023/03/11 07:37:23;;;;;;;7.50;2.10;;;;;;;-145.18;100.00;60484.78;5076075;28;20096;-70
2023/03/11 07:39:49;;;;;;;6.13;1.90;;;;;;;-145.18;100.00;60484.78;5074505;28;20005;-70
2023/03/11 07:42:14;;;;;;;8.73;2.33;;;;;;;-145.18;100.00;60484.78;5070337;28;20025;-70
2023/03/11 07:44:40;;;;;;;4.97;1.50;;;;;;;-145.18;100.00;60484.78;5073459;28;20031;-70
2023/03/11 07:47:05;;;;;;;5.43;1.63;;;;;;;-145.18;100.00;60484.78;5076138;28;20016;-71
2023/03/11 07:49:31;;;;;;;7.60;1.50;;;;;;;-145.18;100.00;60484.78;5074254;28;20024;-70
2023/03/11 07:51:57;;;;;;;7.70;1.87;;;;;;;-145.18;100.00;60484.78;5074689;28;20017;-70
2023/03/11 07:54:22;;;;;;;5.80;1.37;;;;;;;-145.18;100.00;60484.78;5075446;28;20033;-70
2023/03/11 07:56:47;;;;;;;4.93;1.40;;;;;;;-145.18;100.00;60484.78;5073892;28;20040;-70
2023/03/11 07:59:13;;;;;;;5.57;1.57;;;;;;;-145.18;100.00;60484.78;5071662;28;20515;-71
2023/03/11 08:01:40;;;;;;;7.03;1.40;;;;;;;-145.18;100.00;60484.78;5078982;28;20064;-70
2023/03/11 08:04:08;;;;;;;6.87;1.43;;;;;;;-145.18;100.00;60484.78;5079330;28;20097;-70
2023/03/11 08:06:35;;;;;;;6.27;1.17;;;;;;;-145.18;100.00;60484.78;5078760;28;20044;-70
2023/03/11 08:09:04;;;;;;;4.70;1.30;;;;;;;-145.18;100.00;60484.78;5078711;28;20020;-70
2023/03/11 08:11:31;;;;;;;7.43;1.52;;;;;;;-145.18;100.00;60484.78;5073826;28;20005;-70
2023/03/11 08:13:59;;;;;;;7.32;1.65;;;;;;;-145.18;100.00;60484.78;5072235;28;20029;-70
2023/03/11 08:16:25;;;;;;;4.70;1.65;;;;;;;-145.18;100.00;60484.78;5073168;28;20009;-70
2023/03/11 08:18:52;;;;;;;5.75;1.88;;;;;;;-145.18;100.00;60484.78;5071107;28;20013;-70
2023/03/11 08:21:23;;;;;;;6.60;1.63;;;;;;;-145.18;100.00;60484.78;5076936;28;20040;-70
2023/03/11 08:23:49;;;;;;;5.93;1.35;;;;;;;-145.18;100.00;60484.78;5070915;28;20033;-70
2023/03/11 08:26:17;;;;;;;5.45;1.25;;;;;;;-145.18;100.00;60484.78;5068880;28;20025;-70
2023/03/11 08:28:43;;;;;;;4.55;1.30;;;;;;;-145.18;100.00;60484.78;5067774;28;20085;-71
2023/03/11 08:31:14;;;;;;;6.88;1.25;;;;;;;-145.18;100.00;60484.78;5074330;28;20028;-71
2023/03/11 08:33:40;;;;;;;4.45;1.10;;;;;;;-145.18;100.00;60484.78;5071435;28;20056;-71
2023/03/11 08:36:06;;;;;;;4.78;1.30;;;;;;;-145.18;100.00;60484.78;5076583;28;20036;-71
2023/03/11 08:38:31;;;;;;;6.57;1.30;;;;;;;-145.18;100.00;60484.78;5073966;28;20031;-72
2023/03/11 08:40:57;;;;;;;3.97;1.48;;;;;;;-145.18;100.00;60484.78;5078575;28;20016;-71
2023/03/11 08:43:22;;;;;;;6.18;1.50;;;;;;;-145.18;100.00;60484.78;5075898;28;20096;-71
2023/03/11 08:45:48;;;;;;;6.72;1.33;;;;;;;-145.18;100.00;60484.78;5079200;28;20016;-71
2023/03/11 08:48:13;;;;;;;6.25;1.10;;;;;;;-145.18;100.00;60484.78;5075695;28;20032;-71
2023/03/11 08:50:41;;;;;;;4.63;1.30;;;;;;;-145.18;100.00;60484.78;5078532;28;20009;-71
2023/03/11 08:53:07;;;;;;;5.85;1.40;;;;;;;-145.18;100.00;60484.78;5076280;28;20044;-71
2023/03/11 08:55:33;;;;;;;6.25;1.48;;;;;;;-145.18;100.00;60484.78;5071888;28;20013;-71
2023/03/11 08:57:58;;;;;;;6.47;1.33;;;;;;;-145.18;100.00;60484.78;5071115;28;20061;-71
2023/03/11 09:00:23;;;;;;;6.07;1.20;;;;;;;-145.18;100.00;60484.78;5070516;28;20017;-71
2023/03/11 09:02:49;;;;;;;6.03;1.50;;;;;;;-145.18;100.00;60484.78;5073610;28;20048;-71
2023/03/11 09:05:14;;;;;;;4.00;1.20;;;;;;;-145.18;100.00;60484.78;5069681;28;20053;-70
2023/03/11 09:07:40;;;;;;;8.30;1.38;;;;;;;-145.18;100.00;60484.78;5076066;28;20028;-71
2023/03/11 09:10:06;;;;;;;4.85;1.20;;;;;;;-145.18;100.00;60484.78;5069148;28;20020;-71
2023/03/11 09:12:31;;;;;;;11.23;1.53;;;;;;;-145.18;100.00;60484.78;5077056;28;20009;-71
2023/03/11 09:14:57;;;;;;;6.80;1.40;;;;;;;-145.18;100.00;60484.78;5074560;28;20024;-71
2023/03/11 09:17:22;;;;;;;6.10;1.57;;;;;;;-145.18;100.00;60484.78;5066276;28;20022;-71
2023/03/11 09:19:48;;;;;;;8.53;1.33;;;;;;;-145.18;100.00;60484.78;5070293;28;20017;-70
2023/03/11 09:22:13;;;;;;;6.33;1.13;;;;;;;-145.18;100.00;60484.78;5065592;28;20020;-71
2023/03/11 09:24:39;;;;;;;7.23;1.37;;;;;;;-145.18;100.00;60484.78;5074887;28;20017;-71
2023/03/11 09:27:04;;;;;;;2.90;1.10;;;;;;;-145.18;100.00;60484.78;5065975;28;20037;-70
2023/03/11 09:29:30;;;;;;;8.80;1.40;;;;;;;-145.18;100.00;60484.78;5071852;28;20021;-71
2023/03/11 09:31:56;;;;;;;5.93;1.40;;;;;;;-145.18;100.00;60484.78;5070742;28;20044;-70
2023/03/11 09:34:21;;;;;;;6.37;1.43;;;;;;;-145.18;100.00;60484.78;5067784;28;20044;-71
2023/03/11 09:36:46;;;;;;;5.90;1.80;;;;;;;-145.18;100.00;60484.78;5076548;28;20048;-71
2023/03/11 09:39:12;;;;;;;7.93;1.50;;;;;;;-145.18;100.00;60484.78;5070638;28;20025;-70
2023/03/11 09:42:16;;;;;;;8.07;1.60;;;;;;;-145.18;100.00;60484.78;5064009;28;20012;-71
2023/03/11 09:44:51;;;;;;;7.77;1.77;;;;;;;-145.18;100.00;60484.78;5043652;28;20037;-71
2023/03/11 09:47:38;;;;;;;10.73;2.10;;;;;;;-145.18;100.00;60484.78;5071395;28;20019;-71
2023/03/11 09:50:21;;;;;;;10.20;2.00;;;;;;;-145.18;100.00;60484.78;5077807;28;20063;-71
2023/03/11 09:52:59;;;;;;;9.00;2.03;;;;;;;-145.18;100.00;60484.78;5071123;28;20013;-71
2023/03/11 09:55:33;;;;;;;4.20;1.67;;;;;;;-145.18;100.00;60484.78;5071889;28;20052;-71
2023/03/11 09:58:02;;;;;;;5.53;1.63;;;;;;;-145.18;100.00;60484.78;5072563;28;20013;-70
2023/03/11 10:00:28;;;;;;;4.87;1.53;;;;;;;-145.18;100.00;60484.78;5074985;28;20076;-70
2023/03/11 10:02:54;;;;;;;7.70;2.10;;;;;;;-145.18;100.00;60484.78;5071054;28;20021;-70
2023/03/11 10:05:24;;;;;;;10.70;2.33;;;;;;;-145.18;100.00;60484.78;5063160;28;20044;-70
2023/03/11 10:08:10;;;;;;;10.10;2.33;;;;;;;-145.18;100.00;60484.78;5067560;28;20016;-71
2023/03/11 10:10:45;;;;;;;7.13;1.93;;;;;;;-145.18;100.00;60484.78;5076187;28;20013;-71
2023/03/11 10:13:22;;;;;;;9.73;1.80;;;;;;;-145.18;100.00;60484.78;5070981;28;20048;-71
2023/03/11 10:15:57;;;;;;;6.50;1.90;;;;;;;-145.18;100.00;60484.78;5072798;28;20024;-71
2023/03/11 10:18:48;;;;;;;9.47;1.90;;;;;;;-145.18;100.00;60484.78;5061261;28;20092;-70
2023/03/11 10:21:45;;;;;;;7.40;1.90;;;;;;;-145.18;100.00;60484.78;5064548;28;20535;-70
2023/03/11 10:24:28;;;;;;;8.10;1.83;;;;;;;-145.18;100.00;60484.78;5066133;28;20541;-71
2023/03/11 10:27:08;;;;;;;3.50;1.57;;;;;;;-145.18;100.00;60484.78;5057900;28;20029;-71
2023/03/11 10:29:59;;;;;;;5.40;1.70;;;;;;;-145.18;100.00;60484.78;5041424;28;20021;-71
2023/03/11 10:32:33;;;;;;;5.60;2.23;;;;;;;-145.18;100.00;60484.78;5048245;28;20401;-71
2023/03/11 10:35:19;;;;;;;8.43;1.80;;;;;;;-145.18;100.00;60484.78;5037318;28;20116;-71
2023/03/11 10:38:02;;;;;;;6.37;2.00;;;;;;;-145.18;100.00;60484.78;5049566;28;20396;-71
2023/03/11 10:40:27;;;;;;;7.43;1.73;;;;;;;-145.18;100.00;60484.78;5042815;28;20037;-71
2023/03/11 10:42:55;;;;;;;6.07;1.67;;;;;;;-145.18;100.00;60484.78;5045756;28;20055;-71
2023/03/11 10:45:22;;;;;;;5.80;1.73;;;;;;;-145.18;100.00;60484.78;5050289;28;20107;-71
2023/03/11 10:47:48;;;;;;;4.57;2.00;;;;;;;-145.18;100.00;60484.78;5048773;28;20504;-71
2023/03/11 10:50:18;;;;;;;8.00;1.60;;;;;;;-145.18;100.00;60484.78;5051482;28;20103;-72
2023/03/11 10:53:04;;;;;;;13.23;2.40;;;;;;;-145.18;100.00;60484.78;5042964;28;20528;-71
2023/03/11 10:55:30;;;;;;;6.40;1.73;;;;;;;-145.18;100.00;60484.78;5041964;28;20106;-71
2023/03/11 10:58:16;;;;;;;7.10;1.70;;;;;;;-145.18;100.00;60484.78;5047041;28;20021;-71
2023/03/11 11:00:42;;;;;;;4.67;1.80;;;;;;;-145.18;100.00;60484.78;5051104;28;20492;-71
2023/03/11 11:03:22;;;;;;;6.17;1.80;;;;;;;-145.18;100.00;60484.78;5041777;28;20043;-71
2023/03/11 11:06:02;;;;;;;6.93;1.60;;;;;;;-145.18;100.00;60484.78;5049365;28;20045;-71